createdAt,value
2023-01-15T00:01:03.406Z,146.57
2023-01-15T00:03:05.345Z,135.63
2023-01-15T00:05:08.002Z,163.80
2023-01-15T00:07:10.193Z,145.13
2023-01-15T00:09:16.782Z,86.77
2023-01-15T00:11:19.662Z,64.70
2023-01-15T00:13:21.809Z,62.17
2023-01-15T00:15:24.121Z,53.77
2023-01-15T00:17:26.423Z,46.10
2023-01-15T00:19:28.581Z,45.23
2023-01-15T00:21:31.323Z,41.90
2023-01-15T00:23:55.642Z,41.33
2023-01-15T00:26:16.722Z,48.17
2023-01-15T00:28:18.925Z,41.57
2023-01-15T00:30:21.612Z,41.40
2023-01-15T00:32:24.291Z,39.73
2023-01-15T00:34:27.589Z,44.00
2023-01-15T00:36:29.873Z,71.87
2023-01-15T00:38:31.955Z,69.70
2023-01-15T00:40:34.142Z,72.27
2023-01-15T00:42:41.286Z,71.00
2023-01-15T00:44:44.410Z,59.50
2023-01-15T00:46:46.710Z,72.57
2023-01-15T00:48:49.828Z,59.60
2023-01-15T00:50:51.971Z,68.27
2023-01-15T00:52:54.227Z,78.60
2023-01-15T00:54:56.232Z,62.20
2023-01-15T00:56:58.484Z,62.10
2023-01-15T00:59:04.080Z,46.23
2023-01-15T01:01:07.133Z,40.97
2023-01-15T01:03:09.572Z,40.27
2023-01-15T01:05:14.367Z,31.97
2023-01-15T01:07:18.593Z,32.17
2023-01-15T01:09:20.698Z,38.67
2023-01-15T01:11:26.992Z,34.90
2023-01-15T01:13:29.195Z,30.43
2023-01-15T01:15:34.093Z,29.97
2023-01-15T01:17:39.037Z,48.23
2023-01-15T01:19:43.641Z,30.70
2023-01-15T01:21:46.986Z,30.80
2023-01-15T01:23:49.566Z,28.47
2023-01-15T01:25:52.009Z,28.10
2023-01-15T01:27:58.161Z,29.63
2023-01-15T01:30:02.016Z,31.17
2023-01-15T01:32:04.561Z,50.70
2023-01-15T01:34:06.872Z,72.10
2023-01-15T01:36:09.299Z,54.27
2023-01-15T01:38:11.402Z,49.03
2023-01-15T01:40:14.684Z,50.93
2023-01-15T01:42:18.034Z,45.67
2023-01-15T01:44:33.126Z,39.03
2023-01-15T01:46:36.811Z,39.77
2023-01-15T01:48:38.937Z,32.63
2023-01-15T01:50:42.539Z,38.57
2023-01-15T01:52:51.885Z,42.97
2023-01-15T01:54:54.693Z,42.20
2023-01-15T01:56:57.357Z,41.60
2023-01-15T01:58:59.803Z,36.80
2023-01-15T02:01:02.531Z,48.87
2023-01-15T02:03:08.068Z,46.27
2023-01-15T02:05:14.852Z,42.03
2023-01-15T02:07:17.529Z,54.70
2023-01-15T02:09:19.719Z,72.17
2023-01-15T02:11:24.646Z,50.37
2023-01-15T02:13:35.800Z,55.60
2023-01-15T02:15:48.317Z,53.03
2023-01-15T02:18:01.956Z,38.40
2023-01-15T02:20:40.619Z,51.50
2023-01-15T02:22:54.705Z,59.27
2023-01-15T02:25:16.935Z,48.80
2023-01-15T02:27:24.871Z,65.80
2023-01-15T02:29:55.878Z,64.10
2023-01-15T02:32:02.475Z,50.47
2023-01-15T02:34:13.733Z,50.70
2023-01-15T02:36:22.009Z,36.50
2023-01-15T02:38:28.775Z,34.63
2023-01-15T02:40:58.628Z,31.23
2023-01-15T02:43:02.170Z,27.70
2023-01-15T02:45:07.899Z,26.03
2023-01-15T02:47:12.133Z,31.63
2023-01-15T02:49:17.926Z,39.73
2023-01-15T02:51:26.125Z,51.20
2023-01-15T02:53:31.585Z,39.53
2023-01-15T02:55:41.817Z,68.00
2023-01-15T02:57:47.317Z,72.23
2023-01-15T02:59:54.048Z,58.67
2023-01-15T03:02:02.920Z,53.17
2023-01-15T03:04:17.708Z,47.77
2023-01-15T03:06:32.078Z,50.57
2023-01-15T03:08:36.001Z,36.27
2023-01-15T03:10:57.182Z,31.17
2023-01-15T03:13:03.473Z,29.93
2023-01-15T03:15:40.838Z,30.43
2023-01-15T03:17:56.879Z,29.17
2023-01-15T03:20:10.105Z,26.73
2023-01-15T03:22:32.626Z,26.03
2023-01-15T03:24:40.689Z,26.67
2023-01-15T03:26:43.978Z,27.40
2023-01-15T03:28:48.680Z,26.30
2023-01-15T03:30:50.766Z,29.47
2023-01-15T03:32:54.920Z,27.73
2023-01-15T03:34:57.950Z,22.80
2023-01-15T03:36:59.882Z,28.07
2023-01-15T03:39:04.636Z,24.83
2023-01-15T03:41:39.668Z,26.93
2023-01-15T03:43:48.448Z,28.07
2023-01-15T03:45:57.106Z,32.53
2023-01-15T03:48:20.416Z,32.90
2023-01-15T03:50:43.055Z,26.83
2023-01-15T03:52:58.500Z,24.47
2023-01-15T03:55:22.148Z,26.50
2023-01-15T03:57:47.702Z,28.67
2023-01-15T03:59:54.636Z,23.60
2023-01-15T04:01:57.945Z,23.73
2023-01-15T04:04:03.146Z,23.53
2023-01-15T04:06:06.857Z,24.93
2023-01-15T04:08:11.981Z,20.50
2023-01-15T04:10:14.015Z,23.93
2023-01-15T04:12:16.549Z,25.83
2023-01-15T04:14:22.291Z,20.37
2023-01-15T04:16:31.072Z,22.83
2023-01-15T04:18:33.853Z,22.63
2023-01-15T04:20:36.236Z,24.40
2023-01-15T04:22:38.582Z,26.13
2023-01-15T04:24:40.547Z,24.73
2023-01-15T04:26:42.556Z,24.33
2023-01-15T04:28:44.419Z,20.83
2023-01-15T04:30:47.553Z,22.67
2023-01-15T04:32:50.232Z,21.83
2023-01-15T04:34:52.139Z,22.17
2023-01-15T04:36:55.047Z,22.90
2023-01-15T04:38:59.416Z,21.97
2023-01-15T04:41:20.954Z,19.97
2023-01-15T04:43:41.260Z,23.67
2023-01-15T04:45:46.634Z,21.17
2023-01-15T04:47:48.450Z,24.13
2023-01-15T04:49:50.405Z,19.83
2023-01-15T04:51:52.420Z,20.13
2023-01-15T04:53:54.501Z,21.50
2023-01-15T04:56:05.093Z,21.97
2023-01-15T04:58:07.741Z,24.37
2023-01-15T05:00:10.255Z,23.70
2023-01-15T05:02:15.046Z,24.13
2023-01-15T05:04:17.633Z,25.13
2023-01-15T05:06:19.860Z,24.70
2023-01-15T05:08:21.875Z,30.73
2023-01-15T05:10:23.831Z,33.90
2023-01-15T05:12:26.552Z,28.37
2023-01-15T05:14:28.637Z,30.50
2023-01-15T05:16:31.994Z,30.03
2023-01-15T05:18:33.993Z,33.83
2023-01-15T05:20:38.821Z,35.77
2023-01-15T05:22:40.747Z,37.00
2023-01-15T05:24:43.027Z,41.97
2023-01-15T05:26:45.516Z,38.77
2023-01-15T05:28:48.536Z,42.83
2023-01-15T05:30:50.442Z,46.73
2023-01-15T05:32:52.324Z,50.97
2023-01-15T05:34:54.480Z,59.57
2023-01-15T05:36:56.639Z,68.43
2023-01-15T05:39:02.384Z,64.57
2023-01-15T05:41:28.523Z,60.83
2023-01-15T05:43:30.456Z,59.37
2023-01-15T05:45:36.269Z,57.00
2023-01-15T05:47:38.144Z,56.67
2023-01-15T05:49:39.951Z,56.37
2023-01-15T05:51:42.642Z,53.13
2023-01-15T05:53:44.669Z,56.00
2023-01-15T05:55:46.850Z,59.50
2023-01-15T05:57:49.341Z,61.97
2023-01-15T05:59:53.419Z,79.80
2023-01-15T06:01:56.013Z,72.00
2023-01-15T06:04:00.343Z,61.90
2023-01-15T06:06:02.900Z,58.27
2023-01-15T06:08:05.008Z,57.70
2023-01-15T06:10:07.704Z,54.63
2023-01-15T06:12:09.581Z,57.73
2023-01-15T06:14:12.816Z,53.93
2023-01-15T06:16:14.789Z,51.53
2023-01-15T06:18:17.029Z,43.90
2023-01-15T06:20:18.955Z,52.13
2023-01-15T06:22:20.802Z,57.97
2023-01-15T06:24:23.185Z,62.27
2023-01-15T06:26:25.157Z,66.63
2023-01-15T06:28:27.270Z,57.40
2023-01-15T06:30:29.210Z,59.63
2023-01-15T06:32:31.087Z,60.43
2023-01-15T06:34:33.097Z,67.27
2023-01-15T06:36:35.281Z,73.57
2023-01-15T06:38:38.007Z,78.10
2023-01-15T06:40:40.444Z,75.83
2023-01-15T06:43:01.114Z,48.97
2023-01-15T06:45:21.690Z,47.33
2023-01-15T06:47:24.833Z,48.73
2023-01-15T06:49:26.880Z,48.53
2023-01-15T06:51:31.051Z,42.10
2023-01-15T06:53:33.113Z,43.40
2023-01-15T06:55:35.183Z,40.37
2023-01-15T06:57:40.048Z,43.60
2023-01-15T06:59:41.910Z,45.63
2023-01-15T07:01:43.731Z,46.30
2023-01-15T07:03:45.701Z,41.73
2023-01-15T07:05:47.999Z,45.40
2023-01-15T07:07:49.837Z,42.03
2023-01-15T07:09:51.798Z,37.37
2023-01-15T07:11:53.658Z,39.40
2023-01-15T07:14:05.956Z,38.93
2023-01-15T07:16:27.068Z,34.47
2023-01-15T07:18:30.894Z,36.40
2023-01-15T07:20:32.947Z,38.93
2023-01-15T07:22:34.782Z,45.77
2023-01-15T07:24:36.673Z,38.63
2023-01-15T07:26:39.753Z,36.53
2023-01-15T07:28:41.938Z,34.20
2023-01-15T07:30:43.881Z,32.87
2023-01-15T07:32:45.773Z,33.50
2023-01-15T07:34:47.621Z,32.80
2023-01-15T07:36:49.536Z,29.70
2023-01-15T07:38:51.582Z,29.87
2023-01-15T07:41:15.182Z,32.57
2023-01-15T07:43:35.735Z,28.67
2023-01-15T07:46:05.736Z,22.57
2023-01-15T07:48:29.324Z,23.80
2023-01-15T07:50:31.208Z,24.77
2023-01-15T07:52:33.212Z,24.20
2023-01-15T07:54:35.106Z,21.53
2023-01-15T07:56:36.971Z,23.90
2023-01-15T07:58:39.242Z,23.93
2023-01-15T08:00:41.982Z,24.87
2023-01-15T08:02:46.064Z,26.53
2023-01-15T08:04:48.132Z,27.40
2023-01-15T08:06:50.145Z,31.17
2023-01-15T08:08:52.152Z,34.47
2023-01-15T08:11:23.362Z,28.50
2023-01-15T08:13:43.951Z,26.10
2023-01-15T08:15:46.695Z,28.47
2023-01-15T08:17:50.459Z,29.77
2023-01-15T08:19:52.372Z,30.27
2023-01-15T08:21:54.475Z,25.33
2023-01-15T08:23:56.412Z,31.03
2023-01-15T08:26:01.476Z,28.00
2023-01-15T08:28:03.814Z,27.70
2023-01-15T08:30:07.778Z,23.23
2023-01-15T08:32:09.914Z,26.03
2023-01-15T08:34:12.189Z,26.00
2023-01-15T08:36:16.029Z,25.80
2023-01-15T08:38:17.990Z,25.03
2023-01-15T08:40:20.115Z,23.20
2023-01-15T08:42:22.059Z,26.77
2023-01-15T08:44:24.913Z,25.93
2023-01-15T08:46:27.017Z,25.43
2023-01-15T08:48:32.038Z,26.07
2023-01-15T08:50:33.944Z,24.20
2023-01-15T08:52:36.377Z,21.77
2023-01-15T08:54:38.455Z,24.23
2023-01-15T08:56:40.488Z,21.50
2023-01-15T08:58:43.131Z,21.20
2023-01-15T09:00:45.089Z,19.93
2023-01-15T09:02:49.276Z,18.33
2023-01-15T09:04:52.940Z,16.63
2023-01-15T09:06:55.008Z,17.50
2023-01-15T09:08:57.175Z,17.70
2023-01-15T09:11:01.568Z,17.23
2023-01-15T09:13:04.578Z,16.33
2023-01-15T09:15:07.057Z,16.40
2023-01-15T09:17:11.883Z,15.30
2023-01-15T09:19:13.732Z,15.87
2023-01-15T09:21:15.854Z,15.77
2023-01-15T09:23:17.929Z,14.63
2023-01-15T09:25:20.358Z,13.87
2023-01-15T09:27:22.298Z,16.83
2023-01-15T09:29:24.097Z,17.10
2023-01-15T09:31:29.081Z,17.23
2023-01-15T09:33:31.243Z,15.57
2023-01-15T09:35:33.221Z,16.07
2023-01-15T09:37:35.366Z,18.77
2023-01-15T09:39:40.899Z,17.37
2023-01-15T09:42:10.321Z,18.13
2023-01-15T09:44:43.585Z,16.93
2023-01-15T09:47:07.043Z,19.00
2023-01-15T09:49:51.813Z,19.37
2023-01-15T09:52:14.362Z,19.13
2023-01-15T09:54:19.381Z,17.57
2023-01-15T09:56:25.636Z,18.40
2023-01-15T09:58:37.224Z,18.13
2023-01-15T10:00:43.869Z,14.07
2023-01-15T10:02:53.228Z,13.63
2023-01-15T10:05:00.325Z,14.93
2023-01-15T10:07:08.623Z,16.47
2023-01-15T10:09:20.590Z,14.53
2023-01-15T10:11:54.093Z,15.33
2023-01-15T10:14:26.492Z,18.90
2023-01-15T10:16:33.865Z,16.00
2023-01-15T10:18:36.076Z,12.83
2023-01-15T10:21:08.454Z,11.83
2023-01-15T10:23:13.573Z,12.00
2023-01-15T10:25:17.753Z,16.47
2023-01-15T10:27:23.174Z,14.27
2023-01-15T10:29:50.439Z,15.30
2023-01-15T10:31:55.130Z,15.80
2023-01-15T10:34:43.954Z,16.50
2023-01-15T10:37:08.523Z,17.47
2023-01-15T10:39:58.594Z,25.63
2023-01-15T10:42:14.919Z,15.83
2023-01-15T10:44:27.248Z,69.83
2023-01-15T10:46:33.882Z,30.20
2023-01-15T10:48:43.016Z,21.33
2023-01-15T10:50:46.290Z,15.43
2023-01-15T10:53:13.416Z,14.80
2023-01-15T10:55:29.551Z,13.60
2023-01-15T10:57:40.322Z,12.13
2023-01-15T10:59:56.205Z,13.43
2023-01-15T11:02:00.288Z,15.93
2023-01-15T11:04:02.524Z,11.93
2023-01-15T11:06:06.801Z,11.60
2023-01-15T11:09:08.769Z,14.37
2023-01-15T11:10:43.894Z,11.17
2023-01-15T11:13:09.412Z,13.87
2023-01-15T11:15:39.844Z,13.27
2023-01-15T11:18:05.583Z,18.77
2023-01-15T11:20:28.163Z,13.63
2023-01-15T11:22:31.075Z,12.50
2023-01-15T11:24:33.004Z,13.47
2023-01-15T11:26:35.207Z,13.07
2023-01-15T11:28:40.915Z,11.40
2023-01-15T11:30:45.412Z,8.73
2023-01-15T11:32:56.958Z,10.23
2023-01-15T11:35:09.265Z,18.10
2023-01-15T11:37:11.670Z,24.27
2023-01-15T11:39:24.643Z,19.17
2023-01-15T11:41:46.382Z,13.30
2023-01-15T11:44:17.334Z,11.37
2023-01-15T11:46:46.828Z,9.37
2023-01-15T11:49:07.458Z,11.10
2023-01-15T11:51:12.485Z,11.90
2023-01-15T11:53:23.030Z,12.03
2023-01-15T11:55:27.186Z,12.10
2023-01-15T11:57:32.835Z,12.17
2023-01-15T11:59:37.103Z,11.30
2023-01-15T12:01:49.891Z,11.40
2023-01-15T12:03:53.257Z,9.80
2023-01-15T12:06:05.736Z,10.73
2023-01-15T12:08:33.947Z,10.37
2023-01-15T12:11:17.494Z,10.77
2023-01-15T12:13:52.581Z,12.60
2023-01-15T12:16:36.218Z,11.77
2023-01-15T12:19:22.826Z,12.07
2023-01-15T12:21:33.631Z,10.80
2023-01-15T12:23:44.759Z,11.23
2023-01-15T12:26:05.577Z,9.13
2023-01-15T12:28:16.758Z,10.67
2023-01-15T12:30:56.271Z,10.87
2023-01-15T12:33:26.474Z,11.57
2023-01-15T12:36:00.352Z,9.20
2023-01-15T12:38:20.460Z,11.30
2023-01-15T12:40:29.185Z,9.50
2023-01-15T12:42:51.831Z,10.13
2023-01-15T12:45:06.170Z,10.07
2023-01-15T12:47:16.447Z,11.63
2023-01-15T12:49:37.221Z,8.98
2023-01-15T12:51:52.492Z,9.23
2023-01-15T12:54:11.430Z,11.18
2023-01-15T12:56:13.307Z,11.40
2023-01-15T12:58:31.130Z,11.07
2023-01-15T13:00:39.401Z,10.43
2023-01-15T13:02:57.389Z,9.10
2023-01-15T13:05:19.434Z,14.30
2023-01-15T13:07:36.145Z,10.83
2023-01-15T13:10:01.716Z,10.85
2023-01-15T13:12:04.057Z,9.87
2023-01-15T13:14:16.656Z,9.70
2023-01-15T13:16:44.367Z,8.10
2023-01-15T13:19:16.654Z,8.43
2023-01-15T13:21:20.535Z,9.90
2023-01-15T13:23:54.845Z,9.13
2023-01-15T13:26:07.093Z,28.60
2023-01-15T13:28:30.014Z,32.13
2023-01-15T13:30:52.477Z,48.47
2023-01-15T13:33:04.953Z,60.40
2023-01-15T13:35:28.312Z,59.47
2023-01-15T13:37:40.668Z,52.87
2023-01-15T13:39:45.344Z,71.87
2023-01-15T13:42:12.376Z,67.97
2023-01-15T13:44:23.140Z,70.03
2023-01-15T13:46:25.119Z,85.13
2023-01-15T13:48:35.202Z,81.17
2023-01-15T13:50:52.316Z,74.50
2023-01-15T13:53:12.976Z,67.53
2023-01-15T13:55:37.520Z,86.97
2023-01-15T13:57:41.583Z,96.77
2023-01-15T13:59:44.824Z,94.28
2023-01-15T14:01:47.106Z,102.23
2023-01-15T14:04:07.174Z,109.20
2023-01-15T14:06:10.011Z,81.07
2023-01-15T14:08:17.170Z,74.00
2023-01-15T14:10:22.299Z,77.20
2023-01-15T14:12:48.857Z,40.97
2023-01-15T14:15:23.928Z,41.40
2023-01-15T14:17:44.496Z,35.93
2023-01-15T14:20:04.793Z,37.13
2023-01-15T14:22:31.430Z,27.80
2023-01-15T14:25:00.800Z,25.27
2023-01-15T14:27:23.976Z,24.83
2023-01-15T14:30:04.550Z,24.80
2023-01-15T14:32:17.225Z,15.17
2023-01-15T14:34:28.525Z,17.63
2023-01-15T14:36:38.375Z,15.73
2023-01-15T14:38:50.434Z,18.47
2023-01-15T14:41:00.155Z,15.97
2023-01-15T14:43:10.322Z,14.67
2023-01-15T14:45:12.181Z,12.73
2023-01-15T14:47:29.443Z,15.23
2023-01-15T14:49:42.777Z,12.77
2023-01-15T14:51:50.273Z,11.55
2023-01-15T14:53:56.097Z,12.87
2023-01-15T14:56:20.179Z,12.03
2023-01-15T14:58:31.192Z,11.30
2023-01-15T15:00:37.963Z,11.47
2023-01-15T15:02:44.467Z,11.33
2023-01-15T15:04:54.151Z,11.33
2023-01-15T15:06:55.894Z,14.53
2023-01-15T15:09:04.940Z,15.23
2023-01-15T15:11:36.870Z,13.40
2023-01-15T15:13:46.855Z,17.67
2023-01-15T15:16:07.666Z,15.70
2023-01-15T15:18:12.536Z,15.93
2023-01-15T15:20:19.288Z,16.43
2023-01-15T15:22:25.009Z,17.20
2023-01-15T15:24:31.453Z,16.70
2023-01-15T15:26:35.866Z,19.50
2023-01-15T15:28:37.825Z,17.57
2023-01-15T15:30:46.188Z,18.27
2023-01-15T15:32:48.228Z,18.77
2023-01-15T15:34:53.039Z,19.90
2023-01-15T15:36:58.567Z,21.70
2023-01-15T15:39:19.375Z,26.17
2023-01-15T15:41:44.892Z,24.53
2023-01-15T15:44:12.741Z,32.10
2023-01-15T15:46:52.006Z,31.17
2023-01-15T15:48:58.045Z,35.33
2023-01-15T15:51:00.292Z,40.90
2023-01-15T15:53:06.979Z,38.07
2023-01-15T15:55:16.273Z,39.47
2023-01-15T15:57:20.038Z,40.50
2023-01-15T15:59:27.829Z,45.87
2023-01-15T16:01:29.921Z,43.27
2023-01-15T16:03:33.289Z,41.50
2023-01-15T16:05:35.965Z,46.73
2023-01-15T16:07:37.946Z,45.17
2023-01-15T16:09:42.646Z,43.50
2023-01-15T16:11:44.741Z,41.87
2023-01-15T16:13:49.836Z,46.23
2023-01-15T16:15:56.205Z,41.03
2023-01-15T16:18:03.550Z,41.60
2023-01-15T16:20:12.725Z,44.77
2023-01-15T16:22:18.041Z,49.93
2023-01-15T16:24:26.317Z,55.57
2023-01-15T16:26:38.966Z,59.50
2023-01-15T16:28:49.331Z,59.47
2023-01-15T16:31:05.425Z,60.47
2023-01-15T16:33:08.239Z,67.40
2023-01-15T16:35:21.082Z,74.37
2023-01-15T16:37:30.809Z,70.00
2023-01-15T16:39:32.701Z,69.70
2023-01-15T16:41:42.423Z,63.60
2023-01-15T16:44:05.954Z,66.23
2023-01-15T16:46:07.905Z,76.63
2023-01-15T16:48:24.565Z,80.70
2023-01-15T16:50:29.904Z,79.50
2023-01-15T16:52:51.281Z,84.53
2023-01-15T16:54:53.426Z,88.80
2023-01-15T16:56:57.145Z,88.57
2023-01-15T16:58:59.080Z,105.43
2023-01-15T17:01:02.491Z,80.57
2023-01-15T17:03:10.782Z,71.40
2023-01-15T17:05:23.830Z,72.53
2023-01-15T17:07:35.583Z,88.03
2023-01-15T17:09:38.169Z,88.03
2023-01-15T17:11:40.978Z,93.07
2023-01-15T17:13:45.284Z,102.97
2023-01-15T17:15:47.699Z,85.10
2023-01-15T17:17:51.394Z,78.20
2023-01-15T17:19:56.395Z,63.20
2023-01-15T17:21:58.461Z,65.40
2023-01-15T17:24:00.368Z,72.47
2023-01-15T17:26:04.430Z,53.83
2023-01-15T17:28:08.289Z,46.03
2023-01-15T17:30:12.758Z,49.67
2023-01-15T17:32:17.825Z,58.63
2023-01-15T17:34:23.553Z,68.13
2023-01-15T17:36:26.399Z,98.43
2023-01-15T17:38:28.283Z,101.03
2023-01-15T17:40:30.771Z,83.10
2023-01-15T17:42:32.785Z,78.93
2023-01-15T17:44:34.722Z,64.37
2023-01-15T17:46:37.165Z,55.90
2023-01-15T17:48:40.175Z,50.70
2023-01-15T17:50:44.277Z,41.87
2023-01-15T17:52:46.914Z,42.20
2023-01-15T17:55:09.869Z,46.43
2023-01-15T17:57:30.815Z,45.70
2023-01-15T17:59:51.496Z,52.27
2023-01-15T18:02:12.588Z,57.10
2023-01-15T18:04:50.715Z,59.27
2023-01-15T18:06:53.903Z,78.40
2023-01-15T18:08:58.803Z,68.97
2023-01-15T18:11:00.940Z,67.13
2023-01-15T18:13:07.761Z,59.80
2023-01-15T18:15:10.260Z,49.90
2023-01-15T18:17:12.108Z,114.10
2023-01-15T18:19:14.336Z,91.43
2023-01-15T18:21:16.772Z,93.67
2023-01-15T18:23:18.824Z,102.23
2023-01-15T18:25:20.783Z,94.87
2023-01-15T18:27:23.240Z,90.23
2023-01-15T18:29:25.380Z,90.23
2023-01-15T18:31:27.632Z,97.10
2023-01-15T18:33:30.317Z,109.40
2023-01-15T18:35:32.611Z,105.90
2023-01-15T18:37:34.618Z,89.73
2023-01-15T18:39:37.417Z,88.40
2023-01-15T18:41:40.520Z,88.07
2023-01-15T18:44:00.684Z,80.53
2023-01-15T18:46:25.164Z,74.63
2023-01-15T18:48:27.729Z,81.57
2023-01-15T18:50:32.044Z,76.97
2023-01-15T18:52:50.240Z,83.90
2023-01-15T18:54:52.306Z,77.20
2023-01-15T18:56:54.174Z,77.23
2023-01-15T18:58:56.857Z,72.33
2023-01-15T19:00:59.159Z,69.33
2023-01-15T19:03:01.031Z,58.93
2023-01-15T19:05:03.086Z,65.50
2023-01-15T19:07:04.936Z,61.87
2023-01-15T19:09:08.617Z,58.77
2023-01-15T19:11:13.707Z,51.93
2023-01-15T19:13:18.195Z,64.40
2023-01-15T19:15:39.485Z,63.53
2023-01-15T19:18:02.889Z,63.27
2023-01-15T19:20:05.970Z,65.03
2023-01-15T19:22:28.079Z,72.60
2023-01-15T19:24:30.484Z,73.37
2023-01-15T19:26:32.395Z,79.97
2023-01-15T19:28:34.310Z,75.17
2023-01-15T19:30:38.860Z,73.47
2023-01-15T19:32:40.934Z,76.27
2023-01-15T19:34:42.749Z,74.10
2023-01-15T19:36:44.961Z,74.47
2023-01-15T19:38:46.763Z,91.20
2023-01-15T19:40:50.288Z,84.27
2023-01-15T19:43:12.219Z,87.97
2023-01-15T19:45:33.496Z,87.27
2023-01-15T19:47:57.156Z,85.50
2023-01-15T19:50:17.708Z,89.03
2023-01-15T19:52:34.897Z,86.17
2023-01-15T19:54:55.536Z,88.33
2023-01-15T19:56:57.501Z,89.73
2023-01-15T19:58:59.385Z,82.63
2023-01-15T20:01:02.104Z,82.63
2023-01-15T20:03:05.348Z,79.27
2023-01-15T20:05:08.976Z,80.33
2023-01-15T20:07:11.620Z,72.23
2023-01-15T20:09:13.702Z,67.53
2023-01-15T20:11:15.969Z,64.97
2023-01-15T20:13:41.487Z,66.67
2023-01-15T20:15:45.872Z,76.73
2023-01-15T20:17:47.903Z,74.03
2023-01-15T20:19:49.967Z,74.57
2023-01-15T20:21:51.714Z,60.87
2023-01-15T20:23:53.548Z,57.93
2023-01-15T20:26:01.586Z,54.43
2023-01-15T20:28:03.445Z,43.93
2023-01-15T20:30:09.299Z,42.10
2023-01-15T20:32:11.239Z,44.97
2023-01-15T20:34:13.061Z,42.07
2023-01-15T20:36:15.436Z,42.97
2023-01-15T20:38:19.095Z,43.83
2023-01-15T20:40:23.864Z,43.80
2023-01-15T20:42:46.350Z,43.00
2023-01-15T20:44:55.348Z,51.47
2023-01-15T20:46:57.449Z,45.00
2023-01-15T20:49:17.673Z,44.63
2023-01-15T20:51:20.114Z,43.43
2023-01-15T20:53:21.945Z,45.53
2023-01-15T20:55:24.822Z,54.43
2023-01-15T20:57:26.664Z,58.40
2023-01-15T20:59:28.870Z,55.10
2023-01-15T21:01:30.904Z,67.77
2023-01-15T21:03:32.835Z,67.90
2023-01-15T21:05:34.767Z,85.00
2023-01-15T21:07:37.925Z,105.03
2023-01-15T21:09:39.827Z,82.83
2023-01-15T21:11:42.483Z,84.37
2023-01-15T21:13:46.031Z,58.37
2023-01-15T21:15:58.207Z,73.13
2023-01-15T21:18:00.360Z,73.20
2023-01-15T21:20:02.525Z,56.70
2023-01-15T21:22:04.667Z,54.53
2023-01-15T21:24:06.863Z,46.63
2023-01-15T21:26:08.970Z,49.63
2023-01-15T21:28:11.812Z,54.77
2023-01-15T21:30:15.828Z,78.27
2023-01-15T21:32:17.765Z,162.30
2023-01-15T21:34:20.556Z,140.80
2023-01-15T21:36:23.075Z,117.53
2023-01-15T21:38:25.246Z,98.20
2023-01-15T21:40:27.256Z,82.67
2023-01-15T21:42:55.628Z,73.83
2023-01-15T21:44:57.543Z,144.70
2023-01-15T21:47:02.061Z,136.43
2023-01-15T21:49:05.831Z,109.80
2023-01-15T21:51:07.839Z,69.63
2023-01-15T21:53:10.120Z,59.23
2023-01-15T21:55:13.314Z,62.30
2023-01-15T21:57:16.007Z,198.37
2023-01-15T21:59:20.114Z,191.23
2023-01-15T22:01:23.364Z,157.97
2023-01-15T22:03:25.548Z,105.17
2023-01-15T22:05:27.529Z,73.43
2023-01-15T22:07:29.899Z,58.83
2023-01-15T22:09:31.755Z,56.43
2023-01-15T22:11:45.837Z,60.57
2023-01-15T22:13:51.209Z,45.30
2023-01-15T22:15:54.575Z,44.37
2023-01-15T22:17:57.752Z,70.40
2023-01-15T22:20:00.409Z,85.30
2023-01-15T22:22:13.111Z,63.20
2023-01-15T22:24:15.437Z,49.07
2023-01-15T22:26:22.163Z,48.97
2023-01-15T22:28:24.489Z,46.97
2023-01-15T22:30:26.440Z,41.50
2023-01-15T22:32:28.579Z,39.77
2023-01-15T22:34:31.283Z,42.83
2023-01-15T22:36:33.515Z,53.43
2023-01-15T22:38:35.521Z,56.33
2023-01-15T22:40:37.569Z,68.40
2023-01-15T22:42:42.096Z,66.23
2023-01-15T22:44:45.214Z,61.10
2023-01-15T22:46:50.474Z,52.37
2023-01-15T22:48:52.812Z,49.90
2023-01-15T22:50:54.764Z,43.97
2023-01-15T22:52:56.630Z,43.97
2023-01-15T22:54:58.513Z,40.10
2023-01-15T22:57:00.920Z,42.53
2023-01-15T22:59:03.004Z,44.43
2023-01-15T23:01:05.683Z,61.13
2023-01-15T23:03:08.169Z,59.70
2023-01-15T23:05:11.867Z,65.33
2023-01-15T23:07:14.093Z,52.10
2023-01-15T23:09:16.081Z,50.97
2023-01-15T23:11:18.176Z,50.07
2023-01-15T23:13:21.191Z,51.67
2023-01-15T23:15:23.213Z,57.80
2023-01-15T23:17:25.886Z,58.30
2023-01-15T23:19:28.339Z,51.97
2023-01-15T23:21:30.715Z,52.33
2023-01-15T23:23:33.889Z,48.60
2023-01-15T23:25:35.985Z,47.13
2023-01-15T23:27:38.289Z,50.77
2023-01-15T23:29:40.956Z,39.67
2023-01-15T23:31:42.982Z,33.83
2023-01-15T23:33:45.433Z,33.37
2023-01-15T23:35:47.601Z,30.00
2023-01-15T23:37:49.857Z,32.93
2023-01-15T23:39:52.205Z,28.47
2023-01-15T23:42:12.560Z,22.27
2023-01-15T23:44:38.919Z,17.20
2023-01-15T23:46:41.259Z,14.20
2023-01-15T23:48:43.459Z,63.73
2023-01-15T23:50:45.421Z,54.17
2023-01-15T23:52:47.424Z,57.50
2023-01-15T23:54:49.412Z,57.57
2023-01-15T23:56:51.738Z,42.60
2023-01-15T23:58:54.006Z,36.27
